Terminal Aerodrome Forecast
Issued by NWS Sioux Falls, SD

Home | Current Version | Previous Version | Text Only | Print | Product List | Glossary Off
Versions: 1 2 3 4 5 6 7 8 9 10 11 12 13 14

000
FTUS43 KFSD 170532
TAFSUX
TAF
KSUX 170532Z 1706/1806 03008KT P6SM SCT150
     FM170900 03008KT 5SM BR SCT005 BKN010 OVC020
     FM171500 36007KT P6SM SCT010 BKN020
     FM171700 34009KT P6SM SCT020 BKN035
     FM180100 VRB03KT P6SM BKN200=

USA.gov is the U.S. government's official web portal to all federal, state and local government web resources and services.